sensor_id;sensor_type;location;lat;lon;timestamp;temperature;humidity
43185;DHT22;28803;52.308;19.096;2024-02-16T00:00:11;7.90;1.00
43185;DHT22;28803;52.308;19.096;2024-02-16T00:02:59;8.00;1.00
43185;DHT22;28803;52.308;19.096;2024-02-16T00:05:27;8.00;1.00
43185;DHT22;28803;52.308;19.096;2024-02-16T00:07:54;8.00;1.00
43185;DHT22;28803;52.308;19.096;2024-02-16T00:10:21;8.00;99.90
43185;DHT22;28803;52.308;19.096;2024-02-16T00:12:49;8.00;99.90
43185;DHT22;28803;52.308;19.096;2024-02-16T00:15:16;8.00;99.90
43185;DHT22;28803;52.308;19.096;2024-02-16T00:17:43;7.90;99.90
43185;DHT22;28803;52.308;19.096;2024-02-16T00:20:11;7.80;99.90
43185;DHT22;28803;52.308;19.096;2024-02-16T00:22:41;7.80;99.90
43185;DHT22;28803;52.308;19.096;2024-02-16T00:25:08;7.70;1.00
43185;DHT22;28803;52.308;19.096;2024-02-16T00:27:35;7.60;99.90
43185;DHT22;28803;52.308;19.096;2024-02-16T00:30:03;7.60;99.90
43185;DHT22;28803;52.308;19.096;2024-02-16T00:32:31;7.50;99.90
43185;DHT22;28803;52.308;19.096;2024-02-16T00:34:58;7.50;99.90
43185;DHT22;28803;52.308;19.096;2024-02-16T00:37:26;7.40;99.90
43185;DHT22;28803;52.308;19.096;2024-02-16T00:39:53;7.40;99.90
43185;DHT22;28803;52.308;19.096;2024-02-16T00:42:22;7.40;99.90
43185;DHT22;28803;52.308;19.096;2024-02-16T00:44:55;7.30;99.90
43185;DHT22;28803;52.308;19.096;2024-02-16T00:47:22;7.20;1.00
43185;DHT22;28803;52.308;19.096;2024-02-16T00:49:50;7.10;1.00
43185;DHT22;28803;52.308;19.096;2024-02-16T00:52:18;7.10;1.00
43185;DHT22;28803;52.308;19.096;2024-02-16T00:54:45;7.10;1.00
43185;DHT22;28803;52.308;19.096;2024-02-16T00:57:13;7.10;1.00
43185;DHT22;28803;52.308;19.096;2024-02-16T00:59:41;7.10;1.00
43185;DHT22;28803;52.308;19.096;2024-02-16T01:02:08;7.10;1.00
43185;DHT22;28803;52.308;19.096;2024-02-16T01:04:38;7.10;1.00
43185;DHT22;28803;52.308;19.096;2024-02-16T01:07:05;7.00;1.00
43185;DHT22;28803;52.308;19.096;2024-02-16T01:09:33;7.00;1.00
43185;DHT22;28803;52.308;19.096;2024-02-16T01:12:00;6.90;1.00
43185;DHT22;28803;52.308;19.096;2024-02-16T01:14:28;6.90;1.00
43185;DHT22;28803;52.308;19.096;2024-02-16T01:16:55;6.90;1.00
43185;DHT22;28803;52.308;19.096;2024-02-16T01:19:22;6.90;1.00
43185;DHT22;28803;52.308;19.096;2024-02-16T01:21:50;6.80;1.00
43185;DHT22;28803;52.308;19.096;2024-02-16T01:24:20;6.70;1.00
43185;DHT22;28803;52.308;19.096;2024-02-16T01:26:49;6.70;1.00
43185;DHT22;28803;52.308;19.096;2024-02-16T01:29:17;6.70;1.00
43185;DHT22;28803;52.308;19.096;2024-02-16T01:31:45;6.60;1.00
43185;DHT22;28803;52.308;19.096;2024-02-16T01:34:12;6.50;1.00
43185;DHT22;28803;52.308;19.096;2024-02-16T01:36:39;6.40;1.00
43185;DHT22;28803;52.308;19.096;2024-02-16T01:39:07;6.40;1.00
43185;DHT22;28803;52.308;19.096;2024-02-16T01:41:38;6.30;1.00
43185;DHT22;28803;52.308;19.096;2024-02-16T01:44:06;6.30;1.00
43185;DHT22;28803;52.308;19.096;2024-02-16T01:46:34;6.30;1.00
43185;DHT22;28803;52.308;19.096;2024-02-16T01:49:02;6.30;1.00
43185;DHT22;28803;52.308;19.096;2024-02-16T01:51:31;6.30;1.00
43185;DHT22;28803;52.308;19.096;2024-02-16T01:54:00;6.30;1.00
43185;DHT22;28803;52.308;19.096;2024-02-16T01:56:28;6.30;1.00
43185;DHT22;28803;52.308;19.096;2024-02-16T01:58:56;6.30;1.00
43185;DHT22;28803;52.308;19.096;2024-02-16T02:01:23;6.30;1.00
43185;DHT22;28803;52.308;19.096;2024-02-16T02:03:51;6.30;1.00
43185;DHT22;28803;52.308;19.096;2024-02-16T02:06:18;6.30;1.00
43185;DHT22;28803;52.308;19.096;2024-02-16T02:08:45;6.30;1.00
43185;DHT22;28803;52.308;19.096;2024-02-16T02:11:13;6.20;1.00
43185;DHT22;28803;52.308;19.096;2024-02-16T02:13:40;6.30;1.00
43185;DHT22;28803;52.308;19.096;2024-02-16T02:16:10;6.20;1.00
43185;DHT22;28803;52.308;19.096;2024-02-16T02:18:37;6.10;1.00
43185;DHT22;28803;52.308;19.096;2024-02-16T02:21:04;6.10;1.00
43185;DHT22;28803;52.308;19.096;2024-02-16T02:23:32;6.10;1.00
43185;DHT22;28803;52.308;19.096;2024-02-16T02:26:01;6.10;1.00
43185;DHT22;28803;52.308;19.096;2024-02-16T02:28:28;6.10;1.00
43185;DHT22;28803;52.308;19.096;2024-02-16T02:30:56;6.10;1.00
43185;DHT22;28803;52.308;19.096;2024-02-16T02:33:23;6.00;1.00
43185;DHT22;28803;52.308;19.096;2024-02-16T02:35:51;5.90;1.00
43185;DHT22;28803;52.308;19.096;2024-02-16T02:38:19;6.00;1.00
43185;DHT22;28803;52.308;19.096;2024-02-16T02:40:46;5.90;1.00
43185;DHT22;28803;52.308;19.096;2024-02-16T02:43:14;6.00;1.00
43185;DHT22;28803;52.308;19.096;2024-02-16T02:45:41;6.00;1.00
43185;DHT22;28803;52.308;19.096;2024-02-16T02:48:08;5.90;1.00
43185;DHT22;28803;52.308;19.096;2024-02-16T02:50:35;6.00;1.00
43185;DHT22;28803;52.308;19.096;2024-02-16T02:53:03;6.00;1.00
43185;DHT22;28803;52.308;19.096;2024-02-16T02:55:30;6.00;1.00
43185;DHT22;28803;52.308;19.096;2024-02-16T02:57:57;5.90;1.00
43185;DHT22;28803;52.308;19.096;2024-02-16T03:00:25;5.90;1.00
43185;DHT22;28803;52.308;19.096;2024-02-16T03:02:53;5.90;1.00
43185;DHT22;28803;52.308;19.096;2024-02-16T03:05:20;5.90;1.00
43185;DHT22;28803;52.308;19.096;2024-02-16T03:08:03;5.80;1.00
43185;DHT22;28803;52.308;19.096;2024-02-16T03:10:31;5.80;1.00
43185;DHT22;28803;52.308;19.096;2024-02-16T03:13:02;5.80;1.00
43185;DHT22;28803;52.308;19.096;2024-02-16T03:15:30;5.80;1.00
43185;DHT22;28803;52.308;19.096;2024-02-16T03:17:57;5.80;1.00
43185;DHT22;28803;52.308;19.096;2024-02-16T03:20:25;5.80;2.10
43185;DHT22;28803;52.308;19.096;2024-02-16T03:22:52;5.80;9.80
43185;DHT22;28803;52.308;19.096;2024-02-16T03:25:19;5.80;15.90
43185;DHT22;28803;52.308;19.096;2024-02-16T03:27:47;5.80;21.70
43185;DHT22;28803;52.308;19.096;2024-02-16T03:30:15;5.90;28.50
43185;DHT22;28803;52.308;19.096;2024-02-16T03:32:42;5.80;34.80
43185;DHT22;28803;52.308;19.096;2024-02-16T03:35:09;5.90;44.40
43185;DHT22;28803;52.308;19.096;2024-02-16T03:37:37;5.90;49.50
43185;DHT22;28803;52.308;19.096;2024-02-16T03:40:05;5.90;57.00
43185;DHT22;28803;52.308;19.096;2024-02-16T03:42:32;6.00;64.70
43185;DHT22;28803;52.308;19.096;2024-02-16T03:45:00;6.00;70.00
43185;DHT22;28803;52.308;19.096;2024-02-16T03:47:27;6.10;79.70
43185;DHT22;28803;52.308;19.096;2024-02-16T03:49:55;6.10;85.10
43185;DHT22;28803;52.308;19.096;2024-02-16T03:52:22;6.20;89.10
43185;DHT22;28803;52.308;19.096;2024-02-16T03:54:50;6.20;90.60
43185;DHT22;28803;52.308;19.096;2024-02-16T03:57:18;6.20;91.30
43185;DHT22;28803;52.308;19.096;2024-02-16T03:59:46;6.10;90.70
43185;DHT22;28803;52.308;19.096;2024-02-16T04:02:13;6.10;90.20
43185;DHT22;28803;52.308;19.096;2024-02-16T04:04:43;6.10;90.60
43185;DHT22;28803;52.308;19.096;2024-02-16T04:07:10;6.10;91.60
43185;DHT22;28803;52.308;19.096;2024-02-16T04:09:38;6.10;91.90
43185;DHT22;28803;52.308;19.096;2024-02-16T04:12:05;6.20;92.30
43185;DHT22;28803;52.308;19.096;2024-02-16T04:14:33;6.10;92.60
43185;DHT22;28803;52.308;19.096;2024-02-16T04:17:00;6.10;93.60
43185;DHT22;28803;52.308;19.096;2024-02-16T04:19:28;6.10;93.10
43185;DHT22;28803;52.308;19.096;2024-02-16T04:21:56;6.10;93.20
43185;DHT22;28803;52.308;19.096;2024-02-16T04:24:26;6.10;93.40
43185;DHT22;28803;52.308;19.096;2024-02-16T04:26:54;6.10;93.80
43185;DHT22;28803;52.308;19.096;2024-02-16T04:29:22;6.10;94.50
43185;DHT22;28803;52.308;19.096;2024-02-16T04:31:49;6.20;95.50
43185;DHT22;28803;52.308;19.096;2024-02-16T04:34:16;6.10;96.30
43185;DHT22;28803;52.308;19.096;2024-02-16T04:36:43;6.20;96.60
43185;DHT22;28803;52.308;19.096;2024-02-16T04:39:11;6.10;97.20
43185;DHT22;28803;52.308;19.096;2024-02-16T04:41:39;6.10;98.10
43185;DHT22;28803;52.308;19.096;2024-02-16T04:44:06;6.10;98.40
43185;DHT22;28803;52.308;19.096;2024-02-16T04:46:33;6.10;98.90
43185;DHT22;28803;52.308;19.096;2024-02-16T04:49:00;6.20;99.60
43185;DHT22;28803;52.308;19.096;2024-02-16T04:51:28;6.10;99.70
43185;DHT22;28803;52.308;19.096;2024-02-16T04:53:55;6.10;99.90
43185;DHT22;28803;52.308;19.096;2024-02-16T04:56:22;6.10;99.90
43185;DHT22;28803;52.308;19.096;2024-02-16T04:58:50;6.10;99.90
43185;DHT22;28803;52.308;19.096;2024-02-16T05:01:17;6.10;99.90
43185;DHT22;28803;52.308;19.096;2024-02-16T05:03:44;6.10;99.90
43185;DHT22;28803;52.308;19.096;2024-02-16T05:06:12;6.10;99.90
43185;DHT22;28803;52.308;19.096;2024-02-16T05:08:39;6.00;99.90
43185;DHT22;28803;52.308;19.096;2024-02-16T05:11:06;6.10;99.90
43185;DHT22;28803;52.308;19.096;2024-02-16T05:13:35;6.00;99.90
43185;DHT22;28803;52.308;19.096;2024-02-16T05:16:11;6.00;99.90
43185;DHT22;28803;52.308;19.096;2024-02-16T05:18:38;5.90;99.50
43185;DHT22;28803;52.308;19.096;2024-02-16T05:21:08;5.90;98.70
43185;DHT22;28803;52.308;19.096;2024-02-16T05:23:35;5.80;97.30
43185;DHT22;28803;52.308;19.096;2024-02-16T05:26:02;5.80;96.10
43185;DHT22;28803;52.308;19.096;2024-02-16T05:28:29;5.70;96.60
43185;DHT22;28803;52.308;19.096;2024-02-16T05:30:58;5.70;96.40
43185;DHT22;28803;52.308;19.096;2024-02-16T05:33:30;5.60;95.80
43185;DHT22;28803;52.308;19.096;2024-02-16T05:35:57;5.60;96.80
43185;DHT22;28803;52.308;19.096;2024-02-16T05:38:26;5.60;97.80
43185;DHT22;28803;52.308;19.096;2024-02-16T05:41:01;5.60;99.20
43185;DHT22;28803;52.308;19.096;2024-02-16T05:43:29;5.60;99.90
43185;DHT22;28803;52.308;19.096;2024-02-16T05:45:56;5.60;99.90
43185;DHT22;28803;52.308;19.096;2024-02-16T05:48:23;5.70;99.90
43185;DHT22;28803;52.308;19.096;2024-02-16T05:51:00;5.60;99.90
43185;DHT22;28803;52.308;19.096;2024-02-16T05:53:28;5.70;99.90
43185;DHT22;28803;52.308;19.096;2024-02-16T05:55:56;5.70;99.90
43185;DHT22;28803;52.308;19.096;2024-02-16T05:58:23;5.70;99.90
43185;DHT22;28803;52.308;19.096;2024-02-16T06:00:50;5.70;99.90
43185;DHT22;28803;52.308;19.096;2024-02-16T06:03:18;5.70;99.90
43185;DHT22;28803;52.308;19.096;2024-02-16T06:05:45;5.80;99.90
43185;DHT22;28803;52.308;19.096;2024-02-16T06:08:13;5.80;99.90
43185;DHT22;28803;52.308;19.096;2024-02-16T06:10:41;5.90;99.90
43185;DHT22;28803;52.308;19.096;2024-02-16T06:13:10;6.00;99.90
43185;DHT22;28803;52.308;19.096;2024-02-16T06:15:37;6.00;99.90
43185;DHT22;28803;52.308;19.096;2024-02-16T06:18:05;6.10;99.90
43185;DHT22;28803;52.308;19.096;2024-02-16T06:20:32;6.20;99.90
43185;DHT22;28803;52.308;19.096;2024-02-16T06:23:00;6.20;99.90
43185;DHT22;28803;52.308;19.096;2024-02-16T06:25:27;6.30;99.90
43185;DHT22;28803;52.308;19.096;2024-02-16T06:27:55;6.30;99.90
43185;DHT22;28803;52.308;19.096;2024-02-16T06:30:22;6.40;99.90
43185;DHT22;28803;52.308;19.096;2024-02-16T06:32:50;6.40;99.90
43185;DHT22;28803;52.308;19.096;2024-02-16T06:35:17;6.40;99.90
43185;DHT22;28803;52.308;19.096;2024-02-16T06:37:45;6.50;99.90
43185;DHT22;28803;52.308;19.096;2024-02-16T06:40:12;6.60;99.90
43185;DHT22;28803;52.308;19.096;2024-02-16T06:42:40;6.70;99.90
43185;DHT22;28803;52.308;19.096;2024-02-16T06:45:07;6.70;99.90
43185;DHT22;28803;52.308;19.096;2024-02-16T06:47:35;6.80;99.90
43185;DHT22;28803;52.308;19.096;2024-02-16T06:50:03;6.90;99.90
43185;DHT22;28803;52.308;19.096;2024-02-16T06:52:31;6.90;99.90
43185;DHT22;28803;52.308;19.096;2024-02-16T06:54:58;6.90;99.90
43185;DHT22;28803;52.308;19.096;2024-02-16T06:57:27;7.00;99.90
43185;DHT22;28803;52.308;19.096;2024-02-16T06:59:54;6.90;99.90
43185;DHT22;28803;52.308;19.096;2024-02-16T07:02:25;7.00;99.90
43185;DHT22;28803;52.308;19.096;2024-02-16T07:04:52;7.00;99.90
43185;DHT22;28803;52.308;19.096;2024-02-16T07:07:20;7.00;99.90
43185;DHT22;28803;52.308;19.096;2024-02-16T07:09:48;7.10;99.90
43185;DHT22;28803;52.308;19.096;2024-02-16T07:12:15;7.10;97.10
43185;DHT22;28803;52.308;19.096;2024-02-16T07:14:43;7.10;94.40
43185;DHT22;28803;52.308;19.096;2024-02-16T07:17:11;7.20;91.60
43185;DHT22;28803;52.308;19.096;2024-02-16T07:19:38;7.20;84.90
43185;DHT22;28803;52.308;19.096;2024-02-16T07:22:06;7.30;76.40
43185;DHT22;28803;52.308;19.096;2024-02-16T07:24:34;7.30;67.40
43185;DHT22;28803;52.308;19.096;2024-02-16T07:27:02;7.40;57.20
43185;DHT22;28803;52.308;19.096;2024-02-16T07:29:29;7.40;50.20
43185;DHT22;28803;52.308;19.096;2024-02-16T07:31:57;7.50;30.50
43185;DHT22;28803;52.308;19.096;2024-02-16T07:34:24;7.50;14.10
43185;DHT22;28803;52.308;19.096;2024-02-16T07:36:52;7.50;1.00
43185;DHT22;28803;52.308;19.096;2024-02-16T07:39:20;7.60;1.00
43185;DHT22;28803;52.308;19.096;2024-02-16T07:41:50;7.60;1.00
43185;DHT22;28803;52.308;19.096;2024-02-16T07:44:17;7.70;1.00
43185;DHT22;28803;52.308;19.096;2024-02-16T07:46:45;7.70;1.00
43185;DHT22;28803;52.308;19.096;2024-02-16T07:49:13;7.80;1.00
43185;DHT22;28803;52.308;19.096;2024-02-16T07:51:41;7.80;1.00
43185;DHT22;28803;52.308;19.096;2024-02-16T07:54:08;7.90;1.00
43185;DHT22;28803;52.308;19.096;2024-02-16T07:56:55;7.90;1.00
43185;DHT22;28803;52.308;19.096;2024-02-16T07:59:25;8.00;1.00
43185;DHT22;28803;52.308;19.096;2024-02-16T08:01:52;8.10;99.90
43185;DHT22;28803;52.308;19.096;2024-02-16T08:04:20;8.10;99.90
43185;DHT22;28803;52.308;19.096;2024-02-16T08:06:47;8.20;99.90
43185;DHT22;28803;52.308;19.096;2024-02-16T08:09:14;8.30;99.90
43185;DHT22;28803;52.308;19.096;2024-02-16T08:11:43;8.30;99.90
43185;DHT22;28803;52.308;19.096;2024-02-16T08:14:11;8.40;99.90
43185;DHT22;28803;52.308;19.096;2024-02-16T08:16:38;8.40;99.90
43185;DHT22;28803;52.308;19.096;2024-02-16T08:19:06;8.50;99.90
43185;DHT22;28803;52.308;19.096;2024-02-16T08:21:33;8.50;99.90
43185;DHT22;28803;52.308;19.096;2024-02-16T08:24:01;8.70;99.90
43185;DHT22;28803;52.308;19.096;2024-02-16T08:26:28;8.80;99.90
43185;DHT22;28803;52.308;19.096;2024-02-16T08:28:56;8.90;99.90
43185;DHT22;28803;52.308;19.096;2024-02-16T08:31:23;9.00;99.90
43185;DHT22;28803;52.308;19.096;2024-02-16T08:33:51;9.20;99.90
43185;DHT22;28803;52.308;19.096;2024-02-16T08:36:19;9.40;99.90
43185;DHT22;28803;52.308;19.096;2024-02-16T08:38:48;9.70;99.90
43185;DHT22;28803;52.308;19.096;2024-02-16T08:41:15;9.80;99.90
43185;DHT22;28803;52.308;19.096;2024-02-16T08:43:43;10.40;96.00
43185;DHT22;28803;52.308;19.096;2024-02-16T08:46:10;12.40;99.90
43185;DHT22;28803;52.308;19.096;2024-02-16T08:48:38;15.10;1.00
43185;DHT22;28803;52.308;19.096;2024-02-16T08:51:06;16.40;1.00
43185;DHT22;28803;52.308;19.096;2024-02-16T08:53:34;17.30;1.00
43185;DHT22;28803;52.308;19.096;2024-02-16T08:56:02;18.10;1.00
43185;DHT22;28803;52.308;19.096;2024-02-16T08:58:29;18.40;1.00
43185;DHT22;28803;52.308;19.096;2024-02-16T09:00:57;18.80;1.00
43185;DHT22;28803;52.308;19.096;2024-02-16T09:03:24;19.30;1.00
43185;DHT22;28803;52.308;19.096;2024-02-16T09:05:52;19.60;1.00
43185;DHT22;28803;52.308;19.096;2024-02-16T09:08:20;20.30;1.00
43185;DHT22;28803;52.308;19.096;2024-02-16T09:10:48;20.20;1.00
43185;DHT22;28803;52.308;19.096;2024-02-16T09:13:16;20.90;1.00
43185;DHT22;28803;52.308;19.096;2024-02-16T09:16:00;21.70;1.00
43185;DHT22;28803;52.308;19.096;2024-02-16T09:18:27;21.00;1.00
43185;DHT22;28803;52.308;19.096;2024-02-16T09:20:55;20.90;1.00
43185;DHT22;28803;52.308;19.096;2024-02-16T09:23:24;21.40;1.00
43185;DHT22;28803;52.308;19.096;2024-02-16T09:25:51;21.60;1.00
43185;DHT22;28803;52.308;19.096;2024-02-16T09:28:19;22.00;1.00
43185;DHT22;28803;52.308;19.096;2024-02-16T09:30:56;21.40;1.00
43185;DHT22;28803;52.308;19.096;2024-02-16T09:33:23;21.60;1.00
43185;DHT22;28803;52.308;19.096;2024-02-16T09:35:51;21.60;1.00
43185;DHT22;28803;52.308;19.096;2024-02-16T09:38:19;22.10;1.00
43185;DHT22;28803;52.308;19.096;2024-02-16T09:40:47;22.50;1.00
43185;DHT22;28803;52.308;19.096;2024-02-16T09:43:28;22.70;1.00
43185;DHT22;28803;52.308;19.096;2024-02-16T09:45:57;22.90;1.00
43185;DHT22;28803;52.308;19.096;2024-02-16T09:48:26;23.30;1.00
43185;DHT22;28803;52.308;19.096;2024-02-16T09:50:57;23.60;1.00
43185;DHT22;28803;52.308;19.096;2024-02-16T09:53:28;24.00;1.00
43185;DHT22;28803;52.308;19.096;2024-02-16T09:55:55;23.80;1.00
43185;DHT22;28803;52.308;19.096;2024-02-16T09:58:22;23.80;1.00
43185;DHT22;28803;52.308;19.096;2024-02-16T10:00:54;23.30;1.00
43185;DHT22;28803;52.308;19.096;2024-02-16T10:03:28;23.10;1.00
43185;DHT22;28803;52.308;19.096;2024-02-16T10:06:07;23.10;1.00
43185;DHT22;28803;52.308;19.096;2024-02-16T10:08:47;22.70;1.00
43185;DHT22;28803;52.308;19.096;2024-02-16T10:11:19;21.60;1.00
43185;DHT22;28803;52.308;19.096;2024-02-16T10:13:57;19.60;1.00
43185;DHT22;28803;52.308;19.096;2024-02-16T10:16:25;17.80;1.00
43185;DHT22;28803;52.308;19.096;2024-02-16T10:18:56;16.20;1.00
43185;DHT22;28803;52.308;19.096;2024-02-16T10:21:27;15.10;1.00
43185;DHT22;28803;52.308;19.096;2024-02-16T10:24:00;14.30;1.00
43185;DHT22;28803;52.308;19.096;2024-02-16T10:26:30;13.60;99.90
43185;DHT22;28803;52.308;19.096;2024-02-16T10:28:57;13.20;99.90
43185;DHT22;28803;52.308;19.096;2024-02-16T10:31:25;12.90;99.90
43185;DHT22;28803;52.308;19.096;2024-02-16T10:34:01;12.70;99.90
43185;DHT22;28803;52.308;19.096;2024-02-16T10:36:35;12.50;99.90
43185;DHT22;28803;52.308;19.096;2024-02-16T10:39:04;12.40;99.90
43185;DHT22;28803;52.308;19.096;2024-02-16T10:41:35;12.30;99.90
43185;DHT22;28803;52.308;19.096;2024-02-16T10:44:05;12.30;99.90
43185;DHT22;28803;52.308;19.096;2024-02-16T10:46:34;12.30;99.90
43185;DHT22;28803;52.308;19.096;2024-02-16T10:49:02;12.30;99.90
43185;DHT22;28803;52.308;19.096;2024-02-16T10:51:49;12.40;99.90
43185;DHT22;28803;52.308;19.096;2024-02-16T10:54:23;12.40;99.90
43185;DHT22;28803;52.308;19.096;2024-02-16T10:56:55;12.40;99.90
43185;DHT22;28803;52.308;19.096;2024-02-16T10:59:23;12.30;99.90
43185;DHT22;28803;52.308;19.096;2024-02-16T11:02:00;12.40;99.90
43185;DHT22;28803;52.308;19.096;2024-02-16T11:04:46;12.30;99.90
43185;DHT22;28803;52.308;19.096;2024-02-16T11:07:18;12.30;99.90
43185;DHT22;28803;52.308;19.096;2024-02-16T11:09:46;12.40;99.90
43185;DHT22;28803;52.308;19.096;2024-02-16T11:12:15;12.40;99.90
43185;DHT22;28803;52.308;19.096;2024-02-16T11:14:47;12.50;99.90
43185;DHT22;28803;52.308;19.096;2024-02-16T11:17:23;12.50;99.90
43185;DHT22;28803;52.308;19.096;2024-02-16T11:19:54;12.50;99.90
43185;DHT22;28803;52.308;19.096;2024-02-16T11:22:22;12.50;99.90
43185;DHT22;28803;52.308;19.096;2024-02-16T11:24:54;12.50;99.90
43185;DHT22;28803;52.308;19.096;2024-02-16T11:27:31;12.60;99.90
43185;DHT22;28803;52.308;19.096;2024-02-16T11:30:01;12.60;99.90
43185;DHT22;28803;52.308;19.096;2024-02-16T11:32:32;12.60;99.90
43185;DHT22;28803;52.308;19.096;2024-02-16T11:35:08;12.70;99.90
43185;DHT22;28803;52.308;19.096;2024-02-16T11:37:36;12.80;99.90
43185;DHT22;28803;52.308;19.096;2024-02-16T11:40:05;12.80;99.90
43185;DHT22;28803;52.308;19.096;2024-02-16T11:42:36;12.80;99.90
43185;DHT22;28803;52.308;19.096;2024-02-16T11:45:04;12.80;99.90
43185;DHT22;28803;52.308;19.096;2024-02-16T11:47:32;12.80;99.90
43185;DHT22;28803;52.308;19.096;2024-02-16T11:50:04;12.90;99.90
43185;DHT22;28803;52.308;19.096;2024-02-16T11:52:32;12.80;99.90
43185;DHT22;28803;52.308;19.096;2024-02-16T11:55:02;12.80;99.90
43185;DHT22;28803;52.308;19.096;2024-02-16T11:57:32;12.80;99.90
43185;DHT22;28803;52.308;19.096;2024-02-16T12:00:02;12.80;99.90
43185;DHT22;28803;52.308;19.096;2024-02-16T12:02:44;12.80;99.90
43185;DHT22;28803;52.308;19.096;2024-02-16T12:05:13;12.70;99.90
43185;DHT22;28803;52.308;19.096;2024-02-16T12:07:41;12.80;99.90
43185;DHT22;28803;52.308;19.096;2024-02-16T12:10:10;12.70;99.90
43185;DHT22;28803;52.308;19.096;2024-02-16T12:12:39;12.70;99.90
43185;DHT22;28803;52.308;19.096;2024-02-16T12:15:07;12.80;99.90
43185;DHT22;28803;52.308;19.096;2024-02-16T12:17:35;12.80;99.90
43185;DHT22;28803;52.308;19.096;2024-02-16T12:20:10;12.90;99.90
43185;DHT22;28803;52.308;19.096;2024-02-16T12:22:38;12.80;99.90
43185;DHT22;28803;52.308;19.096;2024-02-16T12:25:06;12.90;99.90
43185;DHT22;28803;52.308;19.096;2024-02-16T12:27:34;12.90;99.90
43185;DHT22;28803;52.308;19.096;2024-02-16T12:30:02;12.80;99.90
43185;DHT22;28803;52.308;19.096;2024-02-16T12:32:31;12.90;99.90
43185;DHT22;28803;52.308;19.096;2024-02-16T12:34:58;12.80;99.90
43185;DHT22;28803;52.308;19.096;2024-02-16T12:37:26;12.80;99.90
43185;DHT22;28803;52.308;19.096;2024-02-16T12:39:54;12.80;99.90
43185;DHT22;28803;52.308;19.096;2024-02-16T12:42:22;12.80;99.90
43185;DHT22;28803;52.308;19.096;2024-02-16T12:44:51;12.90;99.90
43185;DHT22;28803;52.308;19.096;2024-02-16T12:47:19;12.80;99.90
43185;DHT22;28803;52.308;19.096;2024-02-16T12:49:47;12.90;99.90
43185;DHT22;28803;52.308;19.096;2024-02-16T12:52:20;12.80;99.90
43185;DHT22;28803;52.308;19.096;2024-02-16T12:54:51;12.90;99.90
43185;DHT22;28803;52.308;19.096;2024-02-16T12:57:19;12.90;99.90
43185;DHT22;28803;52.308;19.096;2024-02-16T12:59:47;12.90;99.90
43185;DHT22;28803;52.308;19.096;2024-02-16T13:02:15;13.00;99.90
43185;DHT22;28803;52.308;19.096;2024-02-16T13:04:43;12.90;99.90
43185;DHT22;28803;52.308;19.096;2024-02-16T13:07:11;12.90;99.90
43185;DHT22;28803;52.308;19.096;2024-02-16T13:09:38;12.90;99.90
43185;DHT22;28803;52.308;19.096;2024-02-16T13:12:06;12.90;99.90
43185;DHT22;28803;52.308;19.096;2024-02-16T13:14:33;12.90;99.90
43185;DHT22;28803;52.308;19.096;2024-02-16T13:17:01;13.00;99.90
43185;DHT22;28803;52.308;19.096;2024-02-16T13:19:28;12.90;99.90
43185;DHT22;28803;52.308;19.096;2024-02-16T13:21:56;12.90;99.90
43185;DHT22;28803;52.308;19.096;2024-02-16T13:24:23;13.00;99.90
43185;DHT22;28803;52.308;19.096;2024-02-16T13:26:51;13.00;99.90
43185;DHT22;28803;52.308;19.096;2024-02-16T13:29:18;13.00;99.90
43185;DHT22;28803;52.308;19.096;2024-02-16T13:31:46;13.00;99.90
43185;DHT22;28803;52.308;19.096;2024-02-16T13:34:13;13.10;99.90
43185;DHT22;28803;52.308;19.096;2024-02-16T13:36:42;13.00;99.90
43185;DHT22;28803;52.308;19.096;2024-02-16T13:39:10;13.00;99.90
43185;DHT22;28803;52.308;19.096;2024-02-16T13:41:39;13.00;99.90
43185;DHT22;28803;52.308;19.096;2024-02-16T13:44:06;13.00;99.90
43185;DHT22;28803;52.308;19.096;2024-02-16T13:46:33;12.90;99.90
43185;DHT22;28803;52.308;19.096;2024-02-16T13:49:01;12.90;99.90
43185;DHT22;28803;52.308;19.096;2024-02-16T13:51:29;12.90;99.90
43185;DHT22;28803;52.308;19.096;2024-02-16T13:53:58;12.90;99.90
43185;DHT22;28803;52.308;19.096;2024-02-16T13:56:26;12.90;99.90
43185;DHT22;28803;52.308;19.096;2024-02-16T13:58:53;12.90;99.90
43185;DHT22;28803;52.308;19.096;2024-02-16T14:01:21;12.90;99.90
43185;DHT22;28803;52.308;19.096;2024-02-16T14:03:50;12.90;99.90
43185;DHT22;28803;52.308;19.096;2024-02-16T14:06:18;12.90;99.90
43185;DHT22;28803;52.308;19.096;2024-02-16T14:08:46;12.90;99.90
43185;DHT22;28803;52.308;19.096;2024-02-16T14:11:16;12.90;99.90
43185;DHT22;28803;52.308;19.096;2024-02-16T14:13:43;12.80;99.90
43185;DHT22;28803;52.308;19.096;2024-02-16T14:16:11;12.80;99.90
43185;DHT22;28803;52.308;19.096;2024-02-16T14:18:39;12.80;99.90
43185;DHT22;28803;52.308;19.096;2024-02-16T14:21:06;12.80;99.90
43185;DHT22;28803;52.308;19.096;2024-02-16T14:23:34;12.80;99.90
43185;DHT22;28803;52.308;19.096;2024-02-16T14:26:01;12.90;99.90
43185;DHT22;28803;52.308;19.096;2024-02-16T14:28:28;12.80;99.90
43185;DHT22;28803;52.308;19.096;2024-02-16T14:30:56;12.80;99.90
43185;DHT22;28803;52.308;19.096;2024-02-16T14:33:24;12.80;99.90
43185;DHT22;28803;52.308;19.096;2024-02-16T14:36:04;12.80;99.90
43185;DHT22;28803;52.308;19.096;2024-02-16T14:38:31;12.80;99.90
43185;DHT22;28803;52.308;19.096;2024-02-16T14:40:59;12.70;99.90
43185;DHT22;28803;52.308;19.096;2024-02-16T14:43:31;12.70;99.90
43185;DHT22;28803;52.308;19.096;2024-02-16T14:46:00;12.70;99.90
43185;DHT22;28803;52.308;19.096;2024-02-16T14:48:27;12.70;99.90
43185;DHT22;28803;52.308;19.096;2024-02-16T14:50:56;12.60;99.90
43185;DHT22;28803;52.308;19.096;2024-02-16T14:53:24;12.60;99.90
43185;DHT22;28803;52.308;19.096;2024-02-16T14:55:53;12.60;99.90
43185;DHT22;28803;52.308;19.096;2024-02-16T14:58:23;12.60;99.90
43185;DHT22;28803;52.308;19.096;2024-02-16T15:00:51;12.50;99.90
43185;DHT22;28803;52.308;19.096;2024-02-16T15:03:19;12.50;99.90
43185;DHT22;28803;52.308;19.096;2024-02-16T15:05:47;12.40;99.90
43185;DHT22;28803;52.308;19.096;2024-02-16T15:08:14;12.40;99.90
43185;DHT22;28803;52.308;19.096;2024-02-16T15:10:42;12.30;99.90
43185;DHT22;28803;52.308;19.096;2024-02-16T15:13:10;12.30;99.90
43185;DHT22;28803;52.308;19.096;2024-02-16T15:15:38;12.20;99.90
43185;DHT22;28803;52.308;19.096;2024-02-16T15:18:05;12.10;99.90
43185;DHT22;28803;52.308;19.096;2024-02-16T15:20:33;12.00;99.90
43185;DHT22;28803;52.308;19.096;2024-02-16T15:23:00;11.90;99.90
43185;DHT22;28803;52.308;19.096;2024-02-16T15:25:28;11.80;99.90
43185;DHT22;28803;52.308;19.096;2024-02-16T15:27:55;11.60;99.90
43185;DHT22;28803;52.308;19.096;2024-02-16T15:30:26;11.50;99.90
43185;DHT22;28803;52.308;19.096;2024-02-16T15:32:53;11.40;99.90
43185;DHT22;28803;52.308;19.096;2024-02-16T15:35:22;11.30;99.90
43185;DHT22;28803;52.308;19.096;2024-02-16T15:37:51;11.20;99.90